sensor_id;sensor_type;location;lat;lon;timestamp;pressure;altitude;pressure_sealevel;temperature;humidity
71948;BME280;63257;55.082;38.772;2024-02-21T00:02:21;100829.03;;;-4.81;66.06
71948;BME280;63257;55.082;38.772;2024-02-21T00:04:47;100827.38;;;-4.79;66.46
71948;BME280;63257;55.082;38.772;2024-02-21T00:07:13;100821.31;;;-4.81;66.28
71948;BME280;63257;55.082;38.772;2024-02-21T00:09:39;100805.75;;;-4.86;66.39
71948;BME280;63257;55.082;38.772;2024-02-21T00:12:05;100819.66;;;-4.79;66.34
71948;BME280;63257;55.082;38.772;2024-02-21T00:14:31;100782.56;;;-4.87;66.62
71948;BME280;63257;55.082;38.772;2024-02-21T00:16:57;100793.72;;;-4.87;66.27
71948;BME280;63257;55.082;38.772;2024-02-21T00:19:23;100798.34;;;-4.72;66.63
71948;BME280;63257;55.082;38.772;2024-02-21T00:21:49;100808.66;;;-4.72;67.05
71948;BME280;63257;55.082;38.772;2024-02-21T00:24:14;100805.13;;;-4.75;66.95
71948;BME280;63257;55.082;38.772;2024-02-21T00:26:40;100812.81;;;-4.77;67.28
71948;BME280;63257;55.082;38.772;2024-02-21T00:29:06;100785.16;;;-4.86;67.39
71948;BME280;63257;55.082;38.772;2024-02-21T00:31:32;100801.69;;;-4.76;67.67
71948;BME280;63257;55.082;38.772;2024-02-21T00:33:58;100784.38;;;-4.82;67.73
71948;BME280;63257;55.082;38.772;2024-02-21T00:36:23;100771.28;;;-4.91;67.53
71948;BME280;63257;55.082;38.772;2024-02-21T00:38:49;100798.25;;;-4.77;68.08
71948;BME280;63257;55.082;38.772;2024-02-21T00:41:15;100787.97;;;-4.75;67.79
71948;BME280;63257;55.082;38.772;2024-02-21T00:43:41;100776.03;;;-4.71;67.82
71948;BME280;63257;55.082;38.772;2024-02-21T00:46:08;100782.72;;;-4.80;68.09
71948;BME280;63257;55.082;38.772;2024-02-21T00:48:34;100781.09;;;-4.76;68.41
71948;BME280;63257;55.082;38.772;2024-02-21T00:51:00;100772.34;;;-4.83;68.34
71948;BME280;63257;55.082;38.772;2024-02-21T00:53:26;100768.22;;;-4.74;68.78
71948;BME280;63257;55.082;38.772;2024-02-21T00:55:51;100773.56;;;-4.67;68.18
71948;BME280;63257;55.082;38.772;2024-02-21T00:58:17;100769.97;;;-4.73;68.02
71948;BME280;63257;55.082;38.772;2024-02-21T01:00:43;100775.22;;;-4.69;68.48
71948;BME280;63257;55.082;38.772;2024-02-21T01:03:09;100767.44;;;-4.72;68.20
71948;BME280;63257;55.082;38.772;2024-02-21T01:05:35;100770.06;;;-4.69;68.71
71948;BME280;63257;55.082;38.772;2024-02-21T01:10:45;100764.03;;;-4.71;68.80
71948;BME280;63257;55.082;38.772;2024-02-21T01:13:11;100765.00;;;-4.66;68.80
71948;BME280;63257;55.082;38.772;2024-02-21T01:15:37;100736.34;;;-4.80;68.76
71948;BME280;63257;55.082;38.772;2024-02-21T01:18:03;100738.78;;;-4.87;69.30
71948;BME280;63257;55.082;38.772;2024-02-21T01:20:29;100738.81;;;-4.86;69.45
71948;BME280;63257;55.082;38.772;2024-02-21T01:22:54;100738.78;;;-4.87;69.00
71948;BME280;63257;55.082;38.772;2024-02-21T01:25:20;100760.72;;;-4.65;68.73
71948;BME280;63257;55.082;38.772;2024-02-21T01:27:46;100736.41;;;-4.78;68.75
71948;BME280;63257;55.082;38.772;2024-02-21T01:30:12;100728.53;;;-4.84;68.71
71948;BME280;63257;55.082;38.772;2024-02-21T01:32:38;100757.13;;;-4.72;68.87
71948;BME280;63257;55.082;38.772;2024-02-21T01:35:04;100746.66;;;-4.80;69.14
71948;BME280;63257;55.082;38.772;2024-02-21T01:37:30;100735.47;;;-4.80;69.23
71948;BME280;63257;55.082;38.772;2024-02-21T01:39:56;100745.16;;;-4.70;68.84
71948;BME280;63257;55.082;38.772;2024-02-21T01:42:21;100740.91;;;-4.68;69.06
71948;BME280;63257;55.082;38.772;2024-02-21T01:44:47;100729.75;;;-4.68;69.13
71948;BME280;63257;55.082;38.772;2024-02-21T01:47:13;100738.41;;;-4.63;68.78
71948;BME280;63257;55.082;38.772;2024-02-21T01:49:42;100730.59;;;-4.68;69.09
71948;BME280;63257;55.082;38.772;2024-02-21T01:52:09;100722.91;;;-4.66;68.63
71948;BME280;63257;55.082;38.772;2024-02-21T01:54:37;100714.75;;;-4.86;68.72
71948;BME280;63257;55.082;38.772;2024-02-21T01:57:03;100740.81;;;-4.72;68.72
71948;BME280;63257;55.082;38.772;2024-02-21T01:59:29;100712.28;;;-4.82;68.74
71948;BME280;63257;55.082;38.772;2024-02-21T02:01:55;100730.41;;;-4.77;68.56
71948;BME280;63257;55.082;38.772;2024-02-21T02:04:23;100740.09;;;-4.65;68.98
71948;BME280;63257;55.082;38.772;2024-02-21T02:06:50;100708.88;;;-4.81;68.82
71948;BME280;63257;55.082;38.772;2024-02-21T02:09:16;100729.78;;;-4.67;68.62
71948;BME280;63257;55.082;38.772;2024-02-21T02:11:43;100714.16;;;-4.73;68.91
71948;BME280;63257;55.082;38.772;2024-02-21T02:14:09;100713.41;;;-4.69;68.55
71948;BME280;63257;55.082;38.772;2024-02-21T02:16:35;100717.69;;;-4.69;68.64
71948;BME280;63257;55.082;38.772;2024-02-21T02:19:01;100702.16;;;-4.74;68.50
71948;BME280;63257;55.082;38.772;2024-02-21T02:21:29;100729.13;;;-4.55;68.31
71948;BME280;63257;55.082;38.772;2024-02-21T02:23:57;100724.88;;;-4.54;68.44
71948;BME280;63257;55.082;38.772;2024-02-21T02:26:23;100727.41;;;-4.57;67.96
71948;BME280;63257;55.082;38.772;2024-02-21T02:28:49;100718.47;;;-4.73;68.53
71948;BME280;63257;55.082;38.772;2024-02-21T02:31:15;100721.81;;;-4.78;68.71
71948;BME280;63257;55.082;38.772;2024-02-21T02:33:43;100723.78;;;-4.66;68.69
71948;BME280;63257;55.082;38.772;2024-02-21T02:36:10;100710.81;;;-4.69;68.66
71948;BME280;63257;55.082;38.772;2024-02-21T02:38:36;100721.16;;;-4.67;68.79
71948;BME280;63257;55.082;38.772;2024-02-21T02:41:02;100720.38;;;-4.63;68.61
71948;BME280;63257;55.082;38.772;2024-02-21T02:43:28;100719.34;;;-4.71;68.85
71948;BME280;63257;55.082;38.772;2024-02-21T02:45:54;100703.84;;;-4.74;68.64
71948;BME280;63257;55.082;38.772;2024-02-21T02:48:21;100718.81;;;-4.56;68.39
71948;BME280;63257;55.082;38.772;2024-02-21T02:50:47;100726.44;;;-4.61;68.19
71948;BME280;63257;55.082;38.772;2024-02-21T02:53:15;100725.50;;;-4.65;68.44
71948;BME280;63257;55.082;38.772;2024-02-21T02:55:41;100700.50;;;-4.69;68.39
71948;BME280;63257;55.082;38.772;2024-02-21T02:58:07;100723.91;;;-4.60;68.32
71948;BME280;63257;55.082;38.772;2024-02-21T03:00:35;100707.66;;;-4.57;67.91
71948;BME280;63257;55.082;38.772;2024-02-21T03:03:02;100714.28;;;-4.68;68.30
71948;BME280;63257;55.082;38.772;2024-02-21T03:05:31;100717.81;;;-4.63;68.35
71948;BME280;63257;55.082;38.772;2024-02-21T03:07:57;100723.72;;;-4.67;68.48
71948;BME280;63257;55.082;38.772;2024-02-21T03:10:24;100715.16;;;-4.66;68.81
71948;BME280;63257;55.082;38.772;2024-02-21T03:12:50;100719.50;;;-4.65;68.83
71948;BME280;63257;55.082;38.772;2024-02-21T03:15:18;100710.25;;;-4.55;68.99
71948;BME280;63257;55.082;38.772;2024-02-21T03:17:44;100719.75;;;-4.53;68.47
71948;BME280;63257;55.082;38.772;2024-02-21T03:20:11;100712.06;;;-4.50;68.21
71948;BME280;63257;55.082;38.772;2024-02-21T03:22:37;100718.00;;;-4.54;68.26
71948;BME280;63257;55.082;38.772;2024-02-21T03:25:04;100709.31;;;-4.59;67.94
71948;BME280;63257;55.082;38.772;2024-02-21T03:27:37;100707.44;;;-4.66;68.33
71948;BME280;63257;55.082;38.772;2024-02-21T03:30:03;100689.94;;;-4.83;68.86
71948;BME280;63257;55.082;38.772;2024-02-21T03:32:31;100693.69;;;-4.68;68.78
71948;BME280;63257;55.082;38.772;2024-02-21T03:34:57;100693.66;;;-4.70;68.80
71948;BME280;63257;55.082;38.772;2024-02-21T03:37:23;100712.03;;;-4.53;68.66
71948;BME280;63257;55.082;38.772;2024-02-21T03:39:49;100715.53;;;-4.49;68.55
71948;BME280;63257;55.082;38.772;2024-02-21T03:42:15;100720.50;;;-4.58;68.90
71948;BME280;63257;55.082;38.772;2024-02-21T03:44:41;100678.00;;;-4.79;69.07
71948;BME280;63257;55.082;38.772;2024-02-21T03:47:07;100683.19;;;-4.76;68.99
71948;BME280;63257;55.082;38.772;2024-02-21T03:49:36;100687.53;;;-4.75;69.35
71948;BME280;63257;55.082;38.772;2024-02-21T03:52:02;100701.44;;;-4.67;69.32
71948;BME280;63257;55.082;38.772;2024-02-21T03:54:28;100701.53;;;-4.61;69.24
71948;BME280;63257;55.082;38.772;2024-02-21T03:56:53;100693.50;;;-4.76;69.39
71948;BME280;63257;55.082;38.772;2024-02-21T03:59:19;100702.28;;;-4.66;69.05
71948;BME280;63257;55.082;38.772;2024-02-21T04:01:45;100690.97;;;-4.74;69.36
71948;BME280;63257;55.082;38.772;2024-02-21T04:04:11;100683.19;;;-4.76;69.29
71948;BME280;63257;55.082;38.772;2024-02-21T04:06:45;100694.53;;;-4.68;69.30
71948;BME280;63257;55.082;38.772;2024-02-21T04:09:11;100706.78;;;-4.57;68.99
71948;BME280;63257;55.082;38.772;2024-02-21T04:11:37;100701.53;;;-4.61;69.19
71948;BME280;63257;55.082;38.772;2024-02-21T04:14:03;100695.19;;;-4.78;68.75
71948;BME280;63257;55.082;38.772;2024-02-21T04:16:28;100716.06;;;-4.66;69.30
71948;BME280;63257;55.082;38.772;2024-02-21T04:18:54;100709.22;;;-4.64;69.09
71948;BME280;63257;55.082;38.772;2024-02-21T04:21:21;100709.31;;;-4.59;69.29
71948;BME280;63257;55.082;38.772;2024-02-21T04:23:47;100708.44;;;-4.60;69.28
71948;BME280;63257;55.082;38.772;2024-02-21T04:26:13;100705.16;;;-4.52;69.47
71948;BME280;63257;55.082;38.772;2024-02-21T04:28:39;100717.19;;;-4.51;69.06
71948;BME280;63257;55.082;38.772;2024-02-21T04:31:05;100707.88;;;-4.46;69.40
71948;BME280;63257;55.082;38.772;2024-02-21T04:33:30;100711.34;;;-4.43;69.15
71948;BME280;63257;55.082;38.772;2024-02-21T04:35:56;100712.22;;;-4.44;69.07
71948;BME280;63257;55.082;38.772;2024-02-21T04:38:24;100668.69;;;-4.72;68.78
71948;BME280;63257;55.082;38.772;2024-02-21T04:40:50;100695.38;;;-4.69;69.50
71948;BME280;63257;55.082;38.772;2024-02-21T04:43:16;100721.31;;;-4.60;69.67
71948;BME280;63257;55.082;38.772;2024-02-21T04:45:42;100701.44;;;-4.67;69.80
71948;BME280;63257;55.082;38.772;2024-02-21T04:48:08;100721.56;;;-4.49;69.36
71948;BME280;63257;55.082;38.772;2024-02-21T04:50:33;100706.00;;;-4.53;69.47
71948;BME280;63257;55.082;38.772;2024-02-21T04:52:59;100723.34;;;-4.45;69.36
71948;BME280;63257;55.082;38.772;2024-02-21T04:55:25;100697.44;;;-4.51;68.92
71948;BME280;63257;55.082;38.772;2024-02-21T04:57:51;100715.84;;;-4.34;68.75
71948;BME280;63257;55.082;38.772;2024-02-21T05:00:17;100724.66;;;-4.21;68.45
71948;BME280;63257;55.082;38.772;2024-02-21T05:02:43;100715.00;;;-4.33;68.41
71948;BME280;63257;55.082;38.772;2024-02-21T05:05:09;100698.63;;;-4.35;68.40
71948;BME280;63257;55.082;38.772;2024-02-21T05:07:35;100696.53;;;-4.54;68.57
71948;BME280;63257;55.082;38.772;2024-02-21T05:10:01;100713.25;;;-4.35;69.07
71948;BME280;63257;55.082;38.772;2024-02-21T05:12:30;100717.44;;;-4.39;68.60
71948;BME280;63257;55.082;38.772;2024-02-21T05:14:56;100712.28;;;-4.39;68.53
71948;BME280;63257;55.082;38.772;2024-02-21T05:17:22;100704.69;;;-4.33;68.44
71948;BME280;63257;55.082;38.772;2024-02-21T05:19:47;100713.47;;;-4.23;68.71
71948;BME280;63257;55.082;38.772;2024-02-21T05:22:13;100690.03;;;-4.35;69.02
71948;BME280;63257;55.082;38.772;2024-02-21T05:24:39;100709.19;;;-4.22;68.46
71948;BME280;63257;55.082;38.772;2024-02-21T05:27:05;100716.22;;;-4.14;68.15
71948;BME280;63257;55.082;38.772;2024-02-21T05:29:33;100718.88;;;-4.11;68.22
71948;BME280;63257;55.082;38.772;2024-02-21T05:31:59;100713.84;;;-4.03;68.14
71948;BME280;63257;55.082;38.772;2024-02-21T05:34:25;100693.00;;;-4.14;67.67
71948;BME280;63257;55.082;38.772;2024-02-21T05:36:51;100700.91;;;-4.06;67.67
71948;BME280;63257;55.082;38.772;2024-02-21T05:39:17;100693.16;;;-4.06;67.48
71948;BME280;63257;55.082;38.772;2024-02-21T05:41:44;100711.28;;;-4.01;67.56
71948;BME280;63257;55.082;38.772;2024-02-21T05:44:10;100708.75;;;-4.00;67.71
71948;BME280;63257;55.082;38.772;2024-02-21T05:46:36;100683.59;;;-4.12;67.25
71948;BME280;63257;55.082;38.772;2024-02-21T05:49:02;100690.63;;;-4.03;67.58
71948;BME280;63257;55.082;38.772;2024-02-21T05:51:32;100700.25;;;-3.94;66.54
71948;BME280;63257;55.082;38.772;2024-02-21T05:53:58;100688.72;;;-4.15;66.87
71948;BME280;63257;55.082;38.772;2024-02-21T05:56:24;100714.06;;;-3.90;67.21
71948;BME280;63257;55.082;38.772;2024-02-21T05:58:50;100718.34;;;-3.93;67.13
71948;BME280;63257;55.082;38.772;2024-02-21T06:01:15;100681.13;;;-4.05;66.79
71948;BME280;63257;55.082;38.772;2024-02-21T06:03:41;100720.41;;;-3.73;66.23
71948;BME280;63257;55.082;38.772;2024-02-21T06:06:07;100716.03;;;-3.77;66.17
71948;BME280;63257;55.082;38.772;2024-02-21T06:08:33;100691.81;;;-3.84;65.95
71948;BME280;63257;55.082;38.772;2024-02-21T06:10:59;100714.72;;;-3.52;65.46
71948;BME280;63257;55.082;38.772;2024-02-21T06:13:24;100723.25;;;-3.56;65.61
71948;BME280;63257;55.082;38.772;2024-02-21T06:15:50;100725.81;;;-3.58;65.81
71948;BME280;63257;55.082;38.772;2024-02-21T06:18:19;100713.00;;;-3.53;65.68
71948;BME280;63257;55.082;38.772;2024-02-21T06:20:46;100710.44;;;-3.51;65.97
71948;BME280;63257;55.082;38.772;2024-02-21T06:23:13;100709.63;;;-3.49;65.44
71948;BME280;63257;55.082;38.772;2024-02-21T06:25:39;100720.03;;;-3.43;65.30
71948;BME280;63257;55.082;38.772;2024-02-21T06:28:05;100713.22;;;-3.39;65.11
71948;BME280;63257;55.082;38.772;2024-02-21T06:30:31;100715.13;;;-3.27;64.97
71948;BME280;63257;55.082;38.772;2024-02-21T06:32:57;100717.59;;;-3.35;65.40
71948;BME280;63257;55.082;38.772;2024-02-21T06:35:24;100699.50;;;-3.36;64.94
71948;BME280;63257;55.082;38.772;2024-02-21T06:37:51;100725.56;;;-3.21;63.56
71948;BME280;63257;55.082;38.772;2024-02-21T06:40:20;100721.31;;;-3.17;64.05
71948;BME280;63257;55.082;38.772;2024-02-21T06:42:46;100724.78;;;-3.15;63.65
71948;BME280;63257;55.082;38.772;2024-02-21T06:45:12;100729.97;;;-3.12;63.55
71948;BME280;63257;55.082;38.772;2024-02-21T06:47:38;100721.44;;;-3.07;63.65
71948;BME280;63257;55.082;38.772;2024-02-21T06:50:04;100725.09;;;-2.94;64.18
71948;BME280;63257;55.082;38.772;2024-02-21T06:52:30;100714.84;;;-2.87;63.80
71948;BME280;63257;55.082;38.772;2024-02-21T06:54:56;100700.25;;;-2.84;62.65
71948;BME280;63257;55.082;38.772;2024-02-21T06:57:22;100728.00;;;-2.72;62.71
71948;BME280;63257;55.082;38.772;2024-02-21T06:59:48;100729.81;;;-2.65;62.36
71948;BME280;63257;55.082;38.772;2024-02-21T07:02:14;100712.56;;;-2.64;61.99
71948;BME280;63257;55.082;38.772;2024-02-21T07:04:41;100722.19;;;-2.56;61.91
71948;BME280;63257;55.082;38.772;2024-02-21T07:07:07;100706.44;;;-2.71;61.67
71948;BME280;63257;55.082;38.772;2024-02-21T07:09:32;100718.84;;;-2.45;60.87
71948;BME280;63257;55.082;38.772;2024-02-21T07:11:59;100730.09;;;-2.43;60.47
71948;BME280;63257;55.082;38.772;2024-02-21T07:14:25;100718.19;;;-2.29;60.41
71948;BME280;63257;55.082;38.772;2024-02-21T07:16:51;100728.59;;;-2.23;61.03
71948;BME280;63257;55.082;38.772;2024-02-21T07:19:17;100707.03;;;-2.22;60.11
71948;BME280;63257;55.082;38.772;2024-02-21T07:21:43;100722.78;;;-2.05;60.00
71948;BME280;63257;55.082;38.772;2024-02-21T07:24:09;100698.47;;;-2.17;59.78
71948;BME280;63257;55.082;38.772;2024-02-21T07:26:35;100718.47;;;-2.01;59.79
71948;BME280;63257;55.082;38.772;2024-02-21T07:29:01;100718.53;;;-1.98;59.88
71948;BME280;63257;55.082;38.772;2024-02-21T07:31:27;100713.47;;;-1.85;59.14
71948;BME280;63257;55.082;38.772;2024-02-21T07:33:53;100703.81;;;-2.02;59.36
71948;BME280;63257;55.082;38.772;2024-02-21T07:36:29;100721.88;;;-2.07;59.48
71948;BME280;63257;55.082;38.772;2024-02-21T07:38:56;100708.06;;;-2.07;58.76
71948;BME280;63257;55.082;38.772;2024-02-21T07:41:22;100729.88;;;-1.82;58.57
71948;BME280;63257;55.082;38.772;2024-02-21T07:43:48;100725.59;;;-1.80;58.53
71948;BME280;63257;55.082;38.772;2024-02-21T07:46:18;100726.44;;;-1.81;58.69
71948;BME280;63257;55.082;38.772;2024-02-21T07:48:47;100725.78;;;-1.60;58.21
71948;BME280;63257;55.082;38.772;2024-02-21T07:51:13;100724.94;;;-1.56;57.91
71948;BME280;63257;55.082;38.772;2024-02-21T07:53:39;100708.47;;;-1.64;57.55
71948;BME280;63257;55.082;38.772;2024-02-21T07:56:11;100725.94;;;-1.43;57.98
71948;BME280;63257;55.082;38.772;2024-02-21T07:58:37;100730.31;;;-1.34;57.37
71948;BME280;63257;55.082;38.772;2024-02-21T08:01:03;100721.69;;;-1.33;57.23
71948;BME280;63257;55.082;38.772;2024-02-21T08:03:29;100726.00;;;-1.35;56.99
71948;BME280;63257;55.082;38.772;2024-02-21T08:05:55;100731.13;;;-1.40;56.95
71948;BME280;63257;55.082;38.772;2024-02-21T08:08:20;100723.38;;;-1.38;56.86
71948;BME280;63257;55.082;38.772;2024-02-21T08:10:48;100704.31;;;-1.46;56.04
71948;BME280;63257;55.082;38.772;2024-02-21T08:13:14;100707.84;;;-1.38;55.98
71948;BME280;63257;55.082;38.772;2024-02-21T08:15:41;100712.97;;;-1.44;57.05
71948;BME280;63257;55.082;38.772;2024-02-21T08:18:08;100723.47;;;-1.26;57.03
71948;BME280;63257;55.082;38.772;2024-02-21T08:20:34;100730.41;;;-1.22;56.45
71948;BME280;63257;55.082;38.772;2024-02-21T08:23:01;100732.25;;;-1.07;56.24
71948;BME280;63257;55.082;38.772;2024-02-21T08:25:26;100718.34;;;-1.20;55.99
71948;BME280;63257;55.082;38.772;2024-02-21T08:27:58;100735.75;;;-1.00;55.19
71948;BME280;63257;55.082;38.772;2024-02-21T08:30:25;100720.13;;;-1.09;55.04
71948;BME280;63257;55.082;38.772;2024-02-21T08:32:51;100733.19;;;-0.95;55.42
71948;BME280;63257;55.082;38.772;2024-02-21T08:35:20;100739.28;;;-0.90;55.54
71948;BME280;63257;55.082;38.772;2024-02-21T08:37:48;100721.97;;;-0.96;55.49
71948;BME280;63257;55.082;38.772;2024-02-21T08:40:15;100747.91;;;-0.90;56.32
71948;BME280;63257;55.082;38.772;2024-02-21T08:42:44;100735.91;;;-0.78;54.96
71948;BME280;63257;55.082;38.772;2024-02-21T08:45:10;100733.34;;;-0.69;55.29
71948;BME280;63257;55.082;38.772;2024-02-21T08:47:38;100728.16;;;-0.69;54.90
71948;BME280;63257;55.082;38.772;2024-02-21T08:50:05;100730.78;;;-0.61;54.50
71948;BME280;63257;55.082;38.772;2024-02-21T08:52:31;100680.59;;;-0.77;54.22
71948;BME280;63257;55.082;38.772;2024-02-21T08:54:57;100713.56;;;-0.53;53.93
71948;BME280;63257;55.082;38.772;2024-02-21T08:57:23;100704.06;;;-0.43;53.39
71948;BME280;63257;55.082;38.772;2024-02-21T08:59:49;100731.75;;;-0.41;53.89
71948;BME280;63257;55.082;38.772;2024-02-21T09:02:14;100727.44;;;-0.40;53.50
71948;BME280;63257;55.082;38.772;2024-02-21T09:04:43;100725.72;;;-0.32;53.71
71948;BME280;63257;55.082;38.772;2024-02-21T09:07:12;100722.28;;;-0.34;53.33
71948;BME280;63257;55.082;38.772;2024-02-21T09:09:38;100697.97;;;-0.58;53.40
71948;BME280;63257;55.082;38.772;2024-02-21T09:12:06;100725.72;;;-0.38;54.02
71948;BME280;63257;55.082;38.772;2024-02-21T09:14:33;100707.56;;;-0.33;53.37
71948;BME280;63257;55.082;38.772;2024-02-21T09:16:59;100715.31;;;-0.44;53.65
71948;BME280;63257;55.082;38.772;2024-02-21T09:19:25;100708.34;;;-0.56;53.53
71948;BME280;63257;55.082;38.772;2024-02-21T09:21:51;100712.66;;;-0.60;53.60
71948;BME280;63257;55.082;38.772;2024-02-21T09:24:17;100712.50;;;-0.88;54.23
71948;BME280;63257;55.082;38.772;2024-02-21T09:26:43;100713.28;;;-1.03;54.96
71948;BME280;63257;55.082;38.772;2024-02-21T09:29:09;100682.00;;;-1.32;56.11
71948;BME280;63257;55.082;38.772;2024-02-21T09:31:35;100707.94;;;-1.23;54.97
71948;BME280;63257;55.082;38.772;2024-02-21T09:34:01;100678.56;;;-1.28;56.00
71948;BME280;63257;55.082;38.772;2024-02-21T09:36:27;100679.44;;;-1.29;55.79
71948;BME280;63257;55.082;38.772;2024-02-21T09:38:54;100695.81;;;-1.33;55.88
71948;BME280;63257;55.082;38.772;2024-02-21T09:41:27;100698.47;;;-1.24;56.06
71948;BME280;63257;55.082;38.772;2024-02-21T09:43:56;100697.63;;;-1.20;55.73
71948;BME280;63257;55.082;38.772;2024-02-21T09:47:02;100695.78;;;-1.36;56.06
71948;BME280;63257;55.082;38.772;2024-02-21T09:49:32;100699.38;;;-1.15;55.71
71948;BME280;63257;55.082;38.772;2024-02-21T09:52:01;100695.13;;;-1.03;55.30
71948;BME280;63257;55.082;38.772;2024-02-21T09:54:30;100693.34;;;-1.13;55.77
71948;BME280;63257;55.082;38.772;2024-02-21T09:56:57;100694.28;;;-1.01;55.35
71948;BME280;63257;55.082;38.772;2024-02-21T09:59:23;100696.00;;;-1.00;55.52
71948;BME280;63257;55.082;38.772;2024-02-21T10:01:49;100683.09;;;-0.91;55.55
71948;BME280;63257;55.082;38.772;2024-02-21T10:04:16;100690.16;;;-0.69;55.35
71948;BME280;63257;55.082;38.772;2024-02-21T10:06:44;100677.19;;;-0.64;54.02
71948;BME280;63257;55.082;38.772;2024-02-21T10:09:23;100680.72;;;-0.43;54.47
71948;BME280;63257;55.082;38.772;2024-02-21T10:11:52;100686.00;;;-0.25;53.70
71948;BME280;63257;55.082;38.772;2024-02-21T10:14:18;100673.88;;;-0.20;53.51
71948;BME280;63257;55.082;38.772;2024-02-21T10:16:47;100678.22;;;-0.22;53.52
71948;BME280;63257;55.082;38.772;2024-02-21T10:19:19;100673.03;;;-0.22;53.68
71948;BME280;63257;55.082;38.772;2024-02-21T10:22:03;100659.97;;;-0.46;53.68
71948;BME280;63257;55.082;38.772;2024-02-21T10:24:34;100669.50;;;-0.36;53.79
71948;BME280;63257;55.082;38.772;2024-02-21T10:27:03;100662.56;;;-0.46;54.75
71948;BME280;63257;55.082;38.772;2024-02-21T10:29:33;100667.72;;;-0.62;54.17
71948;BME280;63257;55.082;38.772;2024-02-21T10:32:06;100659.09;;;-0.50;54.38
71948;BME280;63257;55.082;38.772;2024-02-21T10:34:37;100657.44;;;-0.36;54.77
71948;BME280;63257;55.082;38.772;2024-02-21T10:37:05;100664.34;;;-0.27;53.44
71948;BME280;63257;55.082;38.772;2024-02-21T10:39:32;100666.13;;;-0.06;53.89
71948;BME280;63257;55.082;38.772;2024-02-21T10:42:03;100671.34;;;0.02;53.42
71948;BME280;63257;55.082;38.772;2024-02-21T10:44:36;100641.03;;;-0.14;53.10
71948;BME280;63257;55.082;38.772;2024-02-21T10:47:07;100644.44;;;-0.36;53.36
71948;BME280;63257;55.082;38.772;2024-02-21T10:49:38;100640.13;;;-0.32;53.44
71948;BME280;63257;55.082;38.772;2024-02-21T10:52:15;100668.75;;;0.02;54.06
71948;BME280;63257;55.082;38.772;2024-02-21T10:54:55;100661.84;;;0.04;53.42
71948;BME280;63257;55.082;38.772;2024-02-21T10:57:23;100634.97;;;-0.18;53.41
71948;BME280;63257;55.082;38.772;2024-02-21T10:59:51;100662.69;;;0.17;53.38
71948;BME280;63257;55.082;38.772;2024-02-21T11:02:17;100654.94;;;0.25;53.39
71948;BME280;63257;55.082;38.772;2024-02-21T11:04:43;100658.38;;;0.25;53.47
71948;BME280;63257;55.082;38.772;2024-02-21T11:07:09;100640.22;;;0.25;52.66
71948;BME280;63257;55.082;38.772;2024-02-21T11:09:35;100633.28;;;0.24;52.16
71948;BME280;63257;55.082;38.772;2024-02-21T11:12:06;100655.78;;;0.38;52.68
71948;BME280;63257;55.082;38.772;2024-02-21T11:14:32;100656.63;;;0.27;52.76
71948;BME280;63257;55.082;38.772;2024-02-21T11:16:59;100640.19;;;0.19;53.09
71948;BME280;63257;55.082;38.772;2024-02-21T11:19:26;100638.47;;;0.33;52.89
71948;BME280;63257;55.082;38.772;2024-02-21T11:21:54;100648.00;;;0.47;51.70
71948;BME280;63257;55.082;38.772;2024-02-21T11:24:31;100632.41;;;0.48;51.94
71948;BME280;63257;55.082;38.772;2024-02-21T11:27:19;100639.34;;;0.31;53.03
71948;BME280;63257;55.082;38.772;2024-02-21T11:29:54;100635.88;;;0.44;52.69
71948;BME280;63257;55.082;38.772;2024-02-21T11:32:20;100636.75;;;0.32;52.39
71948;BME280;63257;55.082;38.772;2024-02-21T11:34:57;100612.50;;;0.20;52.57
71948;BME280;63257;55.082;38.772;2024-02-21T11:37:29;100627.22;;;0.14;53.30
71948;BME280;63257;55.082;38.772;2024-02-21T11:39:55;100628.94;;;0.06;53.49
71948;BME280;63257;55.082;38.772;2024-02-21T11:42:21;100599.53;;;0.13;52.92
71948;BME280;63257;55.082;38.772;2024-02-21T11:44:48;100603.84;;;0.05;53.34
71948;BME280;63257;55.082;38.772;2024-02-21T11:47:14;100622.03;;;0.14;52.75
71948;BME280;63257;55.082;38.772;2024-02-21T11:49:47;100596.06;;;-0.04;53.71
71948;BME280;63257;55.082;38.772;2024-02-21T11:52:16;100610.78;;;-0.11;53.21
71948;BME280;63257;55.082;38.772;2024-02-21T11:54:44;100615.09;;;-0.07;53.61
71948;BME280;63257;55.082;38.772;2024-02-21T11:57:10;100625.47;;;-0.18;54.04
71948;BME280;63257;55.082;38.772;2024-02-21T11:59:40;100623.72;;;-0.14;53.47
71948;BME280;63257;55.082;38.772;2024-02-21T12:02:06;100599.53;;;-0.08;53.97
71948;BME280;63257;55.082;38.772;2024-02-21T12:04:33;100599.50;;;-0.18;53.93
71948;BME280;63257;55.082;38.772;2024-02-21T12:06:59;100632.38;;;-0.18;53.90
71948;BME280;63257;55.082;38.772;2024-02-21T12:09:25;100622.88;;;-0.14;54.23
71948;BME280;63257;55.082;38.772;2024-02-21T12:12:02;100606.44;;;-0.16;54.05
71948;BME280;63257;55.082;38.772;2024-02-21T12:14:29;100625.47;;;-0.13;54.36
71948;BME280;63257;55.082;38.772;2024-02-21T12:16:56;100598.59;;;-0.47;54.32
71948;BME280;63257;55.082;38.772;2024-02-21T12:19:23;100609.88;;;-0.27;54.79
71948;BME280;63257;55.082;38.772;2024-02-21T12:21:49;100613.34;;;-0.19;54.47
71948;BME280;63257;55.082;38.772;2024-02-21T12:24:25;100619.38;;;-0.18;54.96
71948;BME280;63257;55.082;38.772;2024-02-21T12:26:52;100611.59;;;-0.33;55.42
71948;BME280;63257;55.082;38.772;2024-02-21T12:29:21;100606.38;;;-0.44;55.40
71948;BME280;63257;55.082;38.772;2024-02-21T12:31:48;100616.69;;;-0.60;55.67
71948;BME280;63257;55.082;38.772;2024-02-21T12:34:15;100592.47;;;-0.66;56.30
71948;BME280;63257;55.082;38.772;2024-02-21T12:36:43;100614.91;;;-0.81;57.12
71948;BME280;63257;55.082;38.772;2024-02-21T12:39:09;100609.69;;;-0.86;57.10
71948;BME280;63257;55.082;38.772;2024-02-21T12:41:37;100596.69;;;-0.98;57.20
71948;BME280;63257;55.082;38.772;2024-02-21T12:44:04;100605.38;;;-0.87;57.29